Time;durP1;ratioP1;P1;durP2;ratioP2;P2;SDS_P1;SDS_P2;PMS_P1;PMS_P2;Temp;Humidity;BMP_temperature;BMP_pressure;BME280_temperature;BME280_humidity;BME280_pressure;Samples;Min_cycle;Max_cycle;Signal;HPM_P1;HPM_P2
2024/05/04 00:00:57;;;;;;;;;;;9.30;99.90;;;;;;1817966;77;20182;-65
2024/05/04 00:03:24;;;;;;;;;;;9.20;99.90;;;;;;1819687;77;20211;-63
2024/05/04 00:05:51;;;;;;;;;;;9.20;99.90;;;;;;1819428;77;20406;-65
2024/05/04 00:08:18;;;;;;;;;;;9.10;99.90;;;;;;1816730;77;20176;-64
2024/05/04 00:10:45;;;;;;;;;;;9.20;99.90;;;;;;1818209;77;20513;-63
2024/05/04 00:13:11;;;;;;;;;;;9.10;99.90;;;;;;1820096;77;20181;-63
2024/05/04 00:15:38;;;;;;;;;;;9.10;99.90;;;;;;1817244;77;20258;-64
2024/05/04 00:18:05;;;;;;;;;;;9.10;99.90;;;;;;1822801;77;20179;-64
2024/05/04 00:20:32;;;;;;;;;;;9.10;99.90;;;;;;1816626;77;20187;-64
2024/05/04 00:22:58;;;;;;;;;;;9.10;99.90;;;;;;1805414;77;20162;-64
2024/05/04 00:25:25;;;;;;;;;;;9.20;99.90;;;;;;1817313;77;20278;-65
2024/05/04 00:27:52;;;;;;;;;;;9.20;99.90;;;;;;1824631;77;20437;-64
2024/05/04 00:30:19;;;;;;;;;;;9.30;99.90;;;;;;1824105;77;20179;-64
2024/05/04 00:32:46;;;;;;;;;;;9.20;99.90;;;;;;1816872;77;20469;-63
2024/05/04 00:35:13;;;;;;;;;;;9.10;99.90;;;;;;1816307;77;20176;-63
2024/05/04 00:37:39;;;;;;;;;;;9.10;99.90;;;;;;1820500;77;20162;-63
2024/05/04 00:40:07;;;;;;;;;;;9.10;99.90;;;;;;1817107;77;20207;-63
2024/05/04 00:42:34;;;;;;;;;;;9.10;99.90;;;;;;1823695;77;20140;-62
2024/05/04 00:45:01;;;;;;;;;;;9.10;99.90;;;;;;1823803;77;20183;-65
2024/05/04 00:47:29;;;;;;;;;;;9.10;99.90;;;;;;1816745;77;20228;-65
2024/05/04 00:49:58;;;;;;;;;;;9.10;99.90;;;;;;1818898;77;20197;-65
2024/05/04 00:52:25;;;;;;;;;;;9.10;99.90;;;;;;1816263;77;20586;-65
2024/05/04 00:54:52;;;;;;;;;;;9.20;99.90;;;;;;1816904;77;20175;-66
2024/05/04 00:57:18;;;;;;;;;;;9.10;99.90;;;;;;1819291;77;20203;-65
2024/05/04 00:59:48;;;;;;;;;;;9.10;99.90;;;;;;1816755;77;20170;-66
2024/05/04 01:02:14;;;;;;;;;;;9.10;99.90;;;;;;1814510;77;20486;-64
2024/05/04 01:04:41;;;;;;;;;;;9.00;99.90;;;;;;1816416;77;20265;-65
2024/05/04 01:07:08;;;;;;;;;;;9.00;99.90;;;;;;1816637;77;20292;-64
2024/05/04 01:09:35;;;;;;;;;;;9.00;99.90;;;;;;1816620;77;20219;-65
2024/05/04 01:12:01;;;;;;;;;;;9.00;99.90;;;;;;1827717;77;20219;-65
2024/05/04 01:14:30;;;;;;;;;;;9.00;99.90;;;;;;1817546;77;20274;-65
2024/05/04 01:16:57;;;;;;;;;;;9.00;99.90;;;;;;1817403;77;20214;-66
2024/05/04 01:19:33;;;;;;;;;;;9.00;99.90;;;;;;1817885;77;20315;-64
2024/05/04 01:21:56;;;;;;;;;;;9.00;99.90;;;;;;1816077;77;20205;-64
2024/05/04 01:24:22;;;;;;;;;;;8.90;99.90;;;;;;1822762;77;20366;-64
2024/05/04 01:26:49;;;;;;;;;;;8.90;99.90;;;;;;1823950;77;20193;-65
2024/05/04 01:29:16;;;;;;;;;;;8.90;99.90;;;;;;1812283;77;20210;-64
2024/05/04 01:31:43;;;;;;;;;;;8.80;99.90;;;;;;1820302;77;20214;-65
2024/05/04 01:34:10;;;;;;;;;;;8.80;99.90;;;;;;1816623;77;20174;-65
2024/05/04 01:36:37;;;;;;;;;;;8.80;99.90;;;;;;1818701;77;20289;-65
2024/05/04 01:39:04;;;;;;;;;;;8.80;99.90;;;;;;1824768;77;20189;-66
2024/05/04 01:41:33;;;;;;;;;;;8.80;99.90;;;;;;1825263;77;20184;-65
2024/05/04 01:43:59;;;;;;;;;;;8.90;99.90;;;;;;1816729;77;20474;-65
2024/05/04 01:46:26;;;;;;;;;;;9.00;99.90;;;;;;1813244;77;20164;-62
2024/05/04 01:48:53;;;;;;;;;;;8.90;99.90;;;;;;1817021;77;20476;-66
2024/05/04 01:51:20;;;;;;;;;;;8.80;99.90;;;;;;1826482;77;20126;-64
2024/05/04 01:53:47;;;;;;;;;;;8.70;99.90;;;;;;1817067;77;20177;-64
2024/05/04 01:56:13;;;;;;;;;;;8.70;99.90;;;;;;1821378;77;20207;-65
2024/05/04 01:58:44;;;;;;;;;;;8.60;99.90;;;;;;1818990;77;20121;-63
2024/05/04 02:01:18;;;;;;;;;;;8.50;99.90;;;;;;1817078;77;20118;-65
2024/05/04 02:03:43;;;;;;;;;;;8.50;99.90;;;;;;1815975;77;20499;-65
2024/05/04 02:06:10;;;;;;;;;;;8.40;99.90;;;;;;1824997;77;20174;-65
2024/05/04 02:08:36;;;;;;;;;;;8.40;99.90;;;;;;1815475;77;20493;-64
2024/05/04 02:11:03;;;;;;;;;;;8.40;99.90;;;;;;1823473;77;20210;-65
2024/05/04 02:13:30;;;;;;;;;;;8.40;99.90;;;;;;1822049;77;20227;-64
2024/05/04 02:15:57;;;;;;;;;;;8.30;99.90;;;;;;1816163;77;20309;-65
2024/05/04 02:18:24;;;;;;;;;;;8.30;99.90;;;;;;1821387;77;20486;-63
2024/05/04 02:20:51;;;;;;;;;;;8.30;99.90;;;;;;1820511;77;20177;-64
2024/05/04 02:23:19;;;;;;;;;;;8.20;99.90;;;;;;1816017;77;20808;-65
2024/05/04 02:25:47;;;;;;;;;;;8.20;99.90;;;;;;1825217;77;20231;-64
2024/05/04 02:28:14;;;;;;;;;;;8.10;99.90;;;;;;1814963;78;20270;-66
2024/05/04 02:30:41;;;;;;;;;;;8.10;99.90;;;;;;1839998;77;20169;-65
2024/05/04 02:33:11;;;;;;;;;;;8.20;99.90;;;;;;1845591;75;20214;-63
2024/05/04 02:35:38;;;;;;;;;;;8.20;99.90;;;;;;1838810;77;20184;-65
2024/05/04 02:38:04;;;;;;;;;;;8.10;99.90;;;;;;1840726;77;20161;-65
2024/05/04 02:40:31;;;;;;;;;;;8.00;99.90;;;;;;1849743;77;20216;-65
2024/05/04 02:42:58;;;;;;;;;;;8.00;99.90;;;;;;1835808;77;20188;-64
2024/05/04 02:45:25;;;;;;;;;;;7.90;99.90;;;;;;1831784;77;20211;-65
2024/05/04 02:47:52;;;;;;;;;;;7.90;99.90;;;;;;1818509;77;20230;-64
2024/05/04 02:50:19;;;;;;;;;;;7.90;99.90;;;;;;1830743;77;20173;-64
2024/05/04 02:52:45;;;;;;;;;;;7.90;99.90;;;;;;1830467;77;20331;-65
2024/05/04 02:55:13;;;;;;;;;;;7.90;99.90;;;;;;1825645;77;20224;-65
2024/05/04 02:57:43;;;;;;;;;;;7.90;99.90;;;;;;1831575;77;20195;-66
2024/05/04 03:00:11;;;;;;;;;;;7.90;99.90;;;;;;1830471;77;20177;-63
2024/05/04 03:02:38;;;;;;;;;;;7.80;99.90;;;;;;1832484;77;20773;-65
2024/05/04 03:05:05;;;;;;;;;;;7.70;99.90;;;;;;1834443;77;20345;-65
2024/05/04 03:07:32;;;;;;;;;;;7.70;99.90;;;;;;1840700;77;20169;-65
2024/05/04 03:09:58;;;;;;;;;;;7.70;99.90;;;;;;1830916;77;20205;-65
2024/05/04 03:12:25;;;;;;;;;;;7.80;99.90;;;;;;1844518;77;20175;-63
2024/05/04 03:14:52;;;;;;;;;;;7.70;99.90;;;;;;1836325;77;20192;-64
2024/05/04 03:17:19;;;;;;;;;;;7.60;99.90;;;;;;1824622;77;20170;-64
2024/05/04 03:19:45;;;;;;;;;;;7.60;99.90;;;;;;1825732;77;21265;-64
2024/05/04 03:22:12;;;;;;;;;;;7.60;99.90;;;;;;1837919;77;20130;-65
2024/05/04 03:24:39;;;;;;;;;;;7.60;99.90;;;;;;1826642;77;20277;-64
2024/05/04 03:27:06;;;;;;;;;;;7.50;99.90;;;;;;1843824;77;20191;-64
2024/05/04 03:29:33;;;;;;;;;;;7.50;99.90;;;;;;1838116;77;20214;-65
2024/05/04 03:31:59;;;;;;;;;;;7.50;99.90;;;;;;1819672;77;20192;-64
2024/05/04 03:34:26;;;;;;;;;;;7.50;99.90;;;;;;1830531;76;20189;-64
2024/05/04 03:36:53;;;;;;;;;;;7.50;99.90;;;;;;1829999;77;20479;-63
2024/05/04 03:39:20;;;;;;;;;;;7.40;99.90;;;;;;1827030;77;20178;-65
2024/05/04 03:41:47;;;;;;;;;;;7.40;99.90;;;;;;1819188;78;20177;-65
2024/05/04 03:44:13;;;;;;;;;;;7.40;99.90;;;;;;1805372;77;20186;-63
2024/05/04 03:46:40;;;;;;;;;;;7.40;99.90;;;;;;1809506;78;20291;-65
2024/05/04 03:49:09;;;;;;;;;;;7.40;99.90;;;;;;1817003;78;20286;-64
2024/05/04 03:51:36;;;;;;;;;;;7.40;99.90;;;;;;1840949;77;20467;-65
2024/05/04 03:54:03;;;;;;;;;;;7.40;99.90;;;;;;1834358;77;20534;-65
2024/05/04 03:56:29;;;;;;;;;;;7.50;99.90;;;;;;1836063;77;20216;-63
2024/05/04 03:58:56;;;;;;;;;;;7.50;99.90;;;;;;1841168;77;20347;-65
2024/05/04 04:01:23;;;;;;;;;;;7.50;99.90;;;;;;1831578;77;20173;-64
2024/05/04 04:03:50;;;;;;;;;;;7.50;99.90;;;;;;1833967;77;20182;-64
2024/05/04 04:06:19;;;;;;;;;;;7.50;99.90;;;;;;1830350;77;20414;-65
2024/05/04 04:08:45;;;;;;;;;;;7.50;99.90;;;;;;1826211;77;20158;-64
2024/05/04 04:11:12;;;;;;;;;;;7.60;99.90;;;;;;1837558;77;20219;-66
2024/05/04 04:13:39;;;;;;;;;;;7.60;99.90;;;;;;1846410;76;20539;-64
2024/05/04 04:16:06;;;;;;;;;;;7.60;99.90;;;;;;1828583;77;20162;-66
2024/05/04 04:18:33;;;;;;;;;;;7.70;99.90;;;;;;1828376;77;20177;-63
2024/05/04 04:21:00;;;;;;;;;;;7.70;99.90;;;;;;1840279;77;20193;-65
2024/05/04 04:23:27;;;;;;;;;;;7.80;99.90;;;;;;1830481;77;20189;-63
2024/05/04 04:25:53;;;;;;;;;;;7.80;99.90;;;;;;1836915;77;20210;-63
2024/05/04 04:28:20;;;;;;;;;;;7.90;99.90;;;;;;1843167;77;20193;-65
2024/05/04 04:30:47;;;;;;;;;;;7.90;99.90;;;;;;1830802;77;20206;-64
2024/05/04 04:33:15;;;;;;;;;;;8.00;99.90;;;;;;1820755;77;20492;-65
2024/05/04 04:35:42;;;;;;;;;;;8.00;99.90;;;;;;1832198;77;20186;-65
2024/05/04 04:38:09;;;;;;;;;;;8.10;99.90;;;;;;1821325;77;20219;-65
2024/05/04 04:40:35;;;;;;;;;;;8.00;99.90;;;;;;1832621;77;20159;-63
2024/05/04 04:43:02;;;;;;;;;;;8.10;99.90;;;;;;1834785;77;20308;-65
2024/05/04 04:45:29;;;;;;;;;;;8.50;99.90;;;;;;1824554;77;20267;-65
2024/05/04 04:47:56;;;;;;;;;;;8.90;99.90;;;;;;1836046;77;20274;-64
2024/05/04 04:50:23;;;;;;;;;;;9.10;99.90;;;;;;1831324;77;20183;-64
2024/05/04 04:52:50;;;;;;;;;;;9.60;99.90;;;;;;1835301;77;20178;-63
2024/05/04 04:55:16;;;;;;;;;;;10.20;99.90;;;;;;1829948;77;20189;-65
2024/05/04 04:57:43;;;;;;;;;;;10.50;99.90;;;;;;1837299;77;20537;-65
2024/05/04 05:00:10;;;;;;;;;;;10.80;99.90;;;;;;1817927;77;20183;-64
2024/05/04 05:02:37;;;;;;;;;;;11.20;99.90;;;;;;1834022;77;20218;-64
2024/05/04 05:05:04;;;;;;;;;;;11.70;99.90;;;;;;1825742;77;20178;-64
2024/05/04 05:07:51;;;;;;;;;;;12.30;99.80;;;;;;1830667;77;20174;-65
2024/05/04 05:10:17;;;;;;;;;;;12.60;98.70;;;;;;1797530;78;20179;-64
2024/05/04 05:12:44;;;;;;;;;;;13.20;97.50;;;;;;1794810;78;20168;-65
2024/05/04 05:15:11;;;;;;;;;;;13.30;97.10;;;;;;1800366;78;20481;-65
2024/05/04 05:17:38;;;;;;;;;;;13.10;96.90;;;;;;1795423;78;20309;-65
2024/05/04 05:20:05;;;;;;;;;;;12.90;97.20;;;;;;1798428;77;20191;-65
2024/05/04 05:22:32;;;;;;;;;;;13.20;95.80;;;;;;1804413;78;20189;-65
2024/05/04 05:25:00;;;;;;;;;;;13.70;96.30;;;;;;1795941;77;20333;-65
2024/05/04 05:27:27;;;;;;;;;;;14.00;95.90;;;;;;1796448;78;20180;-64
2024/05/04 05:29:54;;;;;;;;;;;13.80;94.00;;;;;;1803778;78;20233;-65
2024/05/04 05:32:21;;;;;;;;;;;13.40;94.20;;;;;;1798586;78;20160;-64
2024/05/04 05:34:48;;;;;;;;;;;13.20;94.40;;;;;;1800244;78;20179;-65
2024/05/04 05:37:14;;;;;;;;;;;12.80;95.60;;;;;;1800182;78;20215;-64
2024/05/04 05:39:41;;;;;;;;;;;12.70;96.60;;;;;;1798697;78;20314;-65
2024/05/04 05:42:08;;;;;;;;;;;12.90;96.90;;;;;;1799768;78;20246;-65
2024/05/04 05:44:35;;;;;;;;;;;13.20;95.60;;;;;;1800742;78;20179;-65
2024/05/04 05:47:02;;;;;;;;;;;13.50;94.40;;;;;;1803444;78;20230;-65
2024/05/04 05:49:28;;;;;;;;;;;13.60;93.10;;;;;;1802399;78;20204;-65
2024/05/04 05:51:55;;;;;;;;;;;13.70;92.70;;;;;;1798540;78;20487;-65
2024/05/04 05:54:22;;;;;;;;;;;13.50;91.70;;;;;;1799964;77;20187;-65
2024/05/04 05:56:49;;;;;;;;;;;13.20;93.50;;;;;;1792616;78;20850;-65
2024/05/04 05:59:15;;;;;;;;;;;13.10;94.00;;;;;;1797361;78;20180;-65
2024/05/04 06:01:42;;;;;;;;;;;13.00;94.90;;;;;;1789026;78;20138;-64
2024/05/04 06:04:09;;;;;;;;;;;13.00;94.60;;;;;;1805724;77;20188;-65
2024/05/04 06:06:36;;;;;;;;;;;13.00;95.30;;;;;;1799087;78;20194;-65
2024/05/04 06:09:03;;;;;;;;;;;13.00;95.20;;;;;;1797826;78;20140;-65
2024/05/04 06:11:29;;;;;;;;;;;12.80;95.60;;;;;;1796032;78;20177;-66
2024/05/04 06:13:56;;;;;;;;;;;12.90;95.80;;;;;;1797447;77;20183;-63
2024/05/04 06:16:23;;;;;;;;;;;12.90;95.80;;;;;;1801281;78;20185;-63
2024/05/04 06:18:50;;;;;;;;;;;12.80;96.80;;;;;;1798342;78;20272;-65
2024/05/04 06:21:17;;;;;;;;;;;12.80;96.80;;;;;;1794360;78;20189;-65
2024/05/04 06:23:44;;;;;;;;;;;12.80;96.10;;;;;;1797539;78;20242;-63
2024/05/04 06:27:17;;;;;;;;;;;12.80;96.10;;;;;;1830661;72;28722;-63
2024/05/04 06:29:45;;;;;;;;;;;12.90;96.40;;;;;;1819831;77;21103;-61
2024/05/04 06:32:12;;;;;;;;;;;12.90;96.20;;;;;;1824480;77;20524;-64
2024/05/04 06:34:40;;;;;;;;;;;13.00;95.10;;;;;;1822360;77;20811;-64
2024/05/04 06:37:07;;;;;;;;;;;12.90;95.50;;;;;;1827905;77;20177;-64
2024/05/04 06:39:33;;;;;;;;;;;13.00;95.80;;;;;;1833130;77;20187;-63
2024/05/04 06:42:00;;;;;;;;;;;13.20;95.00;;;;;;1831925;77;20206;-64
2024/05/04 06:44:27;;;;;;;;;;;13.40;94.90;;;;;;1825090;77;20212;-63
2024/05/04 06:46:54;;;;;;;;;;;13.70;94.00;;;;;;1814222;77;20357;-62
2024/05/04 06:49:21;;;;;;;;;;;13.80;93.60;;;;;;1832105;77;20170;-63
2024/05/04 06:51:47;;;;;;;;;;;14.00;92.90;;;;;;1817565;77;20137;-61
2024/05/04 06:54:14;;;;;;;;;;;14.00;92.90;;;;;;1831847;77;20191;-63
2024/05/04 06:56:41;;;;;;;;;;;14.00;93.20;;;;;;1833673;77;20266;-63
2024/05/04 06:59:09;;;;;;;;;;;14.00;93.10;;;;;;1837159;76;20187;-63
2024/05/04 07:01:37;;;;;;;;;;;14.10;93.00;;;;;;1824339;77;20391;-64
2024/05/04 07:04:04;;;;;;;;;;;14.10;93.10;;;;;;1828184;77;20204;-63
2024/05/04 07:06:31;;;;;;;;;;;14.10;93.20;;;;;;1824348;77;20237;-64
2024/05/04 07:08:58;;;;;;;;;;;14.10;92.70;;;;;;1828599;77;20775;-64
2024/05/04 07:11:24;;;;;;;;;;;14.10;93.90;;;;;;1827635;77;20179;-63
2024/05/04 07:13:51;;;;;;;;;;;14.20;93.30;;;;;;1825906;77;20559;-63
2024/05/04 07:16:18;;;;;;;;;;;14.30;93.60;;;;;;1824425;77;20168;-64
2024/05/04 07:18:45;;;;;;;;;;;14.40;92.80;;;;;;1821172;77;20483;-64
2024/05/04 07:21:12;;;;;;;;;;;14.70;92.20;;;;;;1832096;77;20178;-64
2024/05/04 07:23:39;;;;;;;;;;;14.70;91.20;;;;;;1820166;77;20463;-64
2024/05/04 07:26:06;;;;;;;;;;;14.80;90.50;;;;;;1830830;77;20431;-61
2024/05/04 07:28:34;;;;;;;;;;;15.00;91.10;;;;;;1831652;77;20212;-64
2024/05/04 07:31:01;;;;;;;;;;;15.10;90.50;;;;;;1826537;77;20203;-64
2024/05/04 07:33:27;;;;;;;;;;;15.30;89.70;;;;;;1834197;77;20118;-64
2024/05/04 07:35:55;;;;;;;;;;;15.50;89.00;;;;;;1831457;77;20196;-64
2024/05/04 07:38:22;;;;;;;;;;;15.50;89.00;;;;;;1826841;76;20305;-64
2024/05/04 07:40:49;;;;;;;;;;;15.40;89.20;;;;;;1829920;77;20214;-64
2024/05/04 07:43:16;;;;;;;;;;;15.40;89.40;;;;;;1827547;77;20167;-64
2024/05/04 07:45:42;;;;;;;;;;;15.50;90.40;;;;;;1831920;77;20177;-64
2024/05/04 07:48:09;;;;;;;;;;;15.40;89.90;;;;;;1824626;77;20187;-62
2024/05/04 07:50:36;;;;;;;;;;;15.50;89.10;;;;;;1830382;77;20205;-64
2024/05/04 07:53:03;;;;;;;;;;;15.50;89.20;;;;;;1843389;77;20220;-62
2024/05/04 07:55:30;;;;;;;;;;;15.50;90.00;;;;;;1828349;77;20168;-62
2024/05/04 07:57:57;;;;;;;;;;;15.50;88.80;;;;;;1839388;76;20216;-64
2024/05/04 08:00:24;;;;;;;;;;;15.60;88.30;;;;;;1830728;77;20232;-62
2024/05/04 08:02:51;;;;;;;;;;;15.70;88.60;;;;;;1820894;77;20275;-64
2024/05/04 08:05:17;;;;;;;;;;;15.80;88.20;;;;;;1831352;77;20163;-64
2024/05/04 08:07:44;;;;;;;;;;;16.00;87.00;;;;;;1822483;77;20164;-65
2024/05/04 08:10:11;;;;;;;;;;;16.00;84.20;;;;;;1820156;77;20286;-65
2024/05/04 08:12:38;;;;;;;;;;;16.10;83.30;;;;;;1832147;77;20155;-65
2024/05/04 08:15:05;;;;;;;;;;;16.10;82.70;;;;;;1823604;77;20467;-65
2024/05/04 08:17:31;;;;;;;;;;;16.20;81.10;;;;;;1823946;77;20241;-63
2024/05/04 08:19:59;;;;;;;;;;;16.20;82.90;;;;;;1825212;77;20245;-65
2024/05/04 08:22:27;;;;;;;;;;;16.40;83.20;;;;;;1820579;77;20202;-63
2024/05/04 08:24:54;;;;;;;;;;;16.30;82.10;;;;;;1826862;77;20220;-64
2024/05/04 08:27:21;;;;;;;;;;;16.40;82.70;;;;;;1815333;77;20194;-65
2024/05/04 08:29:47;;;;;;;;;;;16.50;80.40;;;;;;1823083;77;20513;-65
2024/05/04 08:32:14;;;;;;;;;;;16.40;77.50;;;;;;1828378;77;20164;-65
2024/05/04 08:34:41;;;;;;;;;;;16.50;82.00;;;;;;1824168;77;20677;-64
2024/05/04 08:37:08;;;;;;;;;;;16.50;80.10;;;;;;1829269;77;20213;-63
2024/05/04 08:39:35;;;;;;;;;;;16.40;79.40;;;;;;1828815;77;20451;-65
2024/05/04 08:42:02;;;;;;;;;;;16.40;75.80;;;;;;1834428;77;20196;-64
2024/05/04 08:44:29;;;;;;;;;;;16.30;75.70;;;;;;1822091;77;20172;-64
2024/05/04 08:46:56;;;;;;;;;;;16.20;76.20;;;;;;1828376;77;20168;-65
2024/05/04 08:49:24;;;;;;;;;;;16.10;78.80;;;;;;1822335;77;20179;-63
2024/05/04 08:51:53;;;;;;;;;;;16.00;78.90;;;;;;1832191;77;20164;-65
2024/05/04 08:54:20;;;;;;;;;;;16.00;79.60;;;;;;1824285;77;20194;-65
2024/05/04 08:56:48;;;;;;;;;;;16.10;80.90;;;;;;1821122;77;20187;-64
2024/05/04 08:59:19;;;;;;;;;;;16.20;79.60;;;;;;1819215;77;20242;-65
2024/05/04 09:01:47;;;;;;;;;;;16.20;77.50;;;;;;1830404;77;20423;-64
2024/05/04 09:04:14;;;;;;;;;;;16.40;78.80;;;;;;1811987;77;20470;-64
2024/05/04 09:06:42;;;;;;;;;;;16.40;76.00;;;;;;1828904;77;20126;-65
2024/05/04 09:09:15;;;;;;;;;;;16.30;74.50;;;;;;1824035;77;20535;-63
2024/05/04 09:11:41;;;;;;;;;;;16.20;74.10;;;;;;1823281;77;20222;-64
2024/05/04 09:14:08;;;;;;;;;;;16.20;74.00;;;;;;1826712;77;20175;-64
2024/05/04 09:16:35;;;;;;;;;;;16.20;76.30;;;;;;1821928;77;20172;-62
2024/05/04 09:19:02;;;;;;;;;;;16.10;74.80;;;;;;1827381;77;20172;-61
2024/05/04 09:21:28;;;;;;;;;;;16.00;74.30;;;;;;1829790;77;20463;-63
2024/05/04 09:23:55;;;;;;;;;;;16.00;75.40;;;;;;1818464;77;20132;-64
2024/05/04 09:26:24;;;;;;;;;;;15.90;75.40;;;;;;1833245;77;20169;-64
2024/05/04 09:28:52;;;;;;;;;;;15.90;76.10;;;;;;1822013;77;20183;-63
2024/05/04 09:31:19;;;;;;;;;;;16.10;75.90;;;;;;1826225;77;20520;-64
2024/05/04 09:33:47;;;;;;;;;;;16.20;74.30;;;;;;1826020;78;20821;-65
2024/05/04 09:36:15;;;;;;;;;;;16.20;74.70;;;;;;1820502;78;20168;-64
2024/05/04 09:38:53;;;;;;;;;;;16.30;74.60;;;;;;1824264;78;20204;-64
2024/05/04 09:41:20;;;;;;;;;;;16.30;72.90;;;;;;1815435;77;20174;-65
2024/05/04 09:43:47;;;;;;;;;;;16.30;74.00;;;;;;1816424;77;20238;-62
2024/05/04 09:46:14;;;;;;;;;;;16.50;75.60;;;;;;1829804;77;20173;-66
2024/05/04 09:48:43;;;;;;;;;;;16.60;76.40;;;;;;1819922;77;20227;-65
2024/05/04 09:51:10;;;;;;;;;;;16.90;76.70;;;;;;1829058;77;20181;-66
2024/05/04 09:53:37;;;;;;;;;;;17.10;74.90;;;;;;1820103;78;20254;-67
2024/05/04 09:56:05;;;;;;;;;;;17.30;73.40;;;;;;1814186;77;20268;-62
2024/05/04 09:58:35;;;;;;;;;;;17.40;73.10;;;;;;1819832;77;20231;-64
2024/05/04 10:01:03;;;;;;;;;;;17.50;74.50;;;;;;1816880;77;20187;-65
2024/05/04 10:03:32;;;;;;;;;;;17.70;73.50;;;;;;1815246;77;20261;-65
2024/05/04 10:05:59;;;;;;;;;;;17.90;73.70;;;;;;1813646;77;20517;-65
2024/05/04 10:08:26;;;;;;;;;;;17.90;71.70;;;;;;1812345;77;20219;-63
2024/05/04 10:10:53;;;;;;;;;;;17.90;70.50;;;;;;1821012;77;20506;-63
2024/05/04 10:13:20;;;;;;;;;;;17.90;73.10;;;;;;1818947;77;20181;-64
2024/05/04 10:15:48;;;;;;;;;;;18.10;69.50;;;;;;1810489;77;20171;-63
2024/05/04 10:18:15;;;;;;;;;;;18.30;70.00;;;;;;1806945;77;20541;-63
2024/05/04 10:20:46;;;;;;;;;;;18.50;68.50;;;;;;1820340;77;20164;-64
2024/05/04 10:23:13;;;;;;;;;;;18.70;67.10;;;;;;1813873;77;20185;-63
2024/05/04 10:25:40;;;;;;;;;;;18.90;67.00;;;;;;1814429;77;20195;-63
2024/05/04 10:28:06;;;;;;;;;;;19.20;66.20;;;;;;1830726;77;20122;-65
2024/05/04 10:30:33;;;;;;;;;;;19.40;62.90;;;;;;1811975;77;20469;-64
2024/05/04 10:33:00;;;;;;;;;;;19.60;63.70;;;;;;1819633;77;20214;-62
2024/05/04 10:35:28;;;;;;;;;;;19.60;60.30;;;;;;1824559;77;20191;-65
2024/05/04 10:37:54;;;;;;;;;;;19.70;58.70;;;;;;1821678;77;20176;-64
2024/05/04 10:40:21;;;;;;;;;;;19.70;60.40;;;;;;1825642;77;20590;-65
2024/05/04 10:42:48;;;;;;;;;;;19.70;59.50;;;;;;1822062;77;20194;-63
2024/05/04 10:45:15;;;;;;;;;;;19.60;57.10;;;;;;1814735;77;20462;-65
2024/05/04 10:47:42;;;;;;;;;;;19.40;58.00;;;;;;1820631;77;20522;-64
2024/05/04 10:50:09;;;;;;;;;;;19.50;58.60;;;;;;1816057;77;20246;-62
2024/05/04 10:52:40;;;;;;;;;;;19.50;56.30;;;;;;1811738;77;20275;-64
2024/05/04 10:55:06;;;;;;;;;;;19.20;56.50;;;;;;1837416;77;20181;-65
2024/05/04 10:57:33;;;;;;;;;;;19.00;58.40;;;;;;1797799;77;20230;-64
2024/05/04 11:00:02;;;;;;;;;;;19.00;58.90;;;;;;1820472;77;20165;-64
2024/05/04 11:02:29;;;;;;;;;;;19.10;58.00;;;;;;1807774;77;20226;-65
2024/05/04 11:04:55;;;;;;;;;;;19.20;59.60;;;;;;1819814;77;20171;-64
2024/05/04 11:07:24;;;;;;;;;;;19.20;56.30;;;;;;1829373;77;20187;-64
2024/05/04 11:09:51;;;;;;;;;;;19.20;55.60;;;;;;1819052;77;20113;-63
2024/05/04 11:12:18;;;;;;;;;;;19.30;54.80;;;;;;1826469;77;20513;-64
2024/05/04 11:14:44;;;;;;;;;;;19.40;52.90;;;;;;1805204;77;20206;-64
2024/05/04 11:17:20;;;;;;;;;;;19.70;50.90;;;;;;1808566;77;20274;-61
2024/05/04 11:19:48;;;;;;;;;;;19.90;51.00;;;;;;1819449;77;21130;-64
2024/05/04 11:25:02;;;;;;;;;;;19.90;50.10;;;;;;1773197;80;20181;-65
2024/05/04 11:27:29;;;;;;;;;;;19.50;52.90;;;;;;1763885;80;20179;-64
2024/05/04 11:29:56;;;;;;;;;;;19.20;55.00;;;;;;1737473;81;20197;-66
2024/05/04 11:32:23;;;;;;;;;;;19.00;54.50;;;;;;1730795;81;20374;-65
2024/05/04 11:34:49;;;;;;;;;;;18.80;48.40;;;;;;1743952;81;20727;-64
2024/05/04 11:37:16;;;;;;;;;;;18.80;52.40;;;;;;1745163;81;20615;-65
2024/05/04 11:39:43;;;;;;;;;;;18.70;50.00;;;;;;1764414;80;20191;-64
2024/05/04 11:42:10;;;;;;;;;;;18.60;49.30;;;;;;1736122;81;20525;-63
2024/05/04 11:44:37;;;;;;;;;;;18.60;49.00;;;;;;1749893;80;20186;-63
2024/05/04 11:47:03;;;;;;;;;;;18.60;47.80;;;;;;1740998;81;20468;-62
2024/05/04 11:49:30;;;;;;;;;;;18.70;47.60;;;;;;1743604;81;20236;-60
2024/05/04 11:51:57;;;;;;;;;;;18.80;48.30;;;;;;1771423;80;20329;-62
2024/05/04 11:54:24;;;;;;;;;;;19.10;47.10;;;;;;1766075;80;20174;-63
2024/05/04 11:56:51;;;;;;;;;;;19.40;48.10;;;;;;1766095;80;20172;-63
2024/05/04 11:59:17;;;;;;;;;;;19.50;46.60;;;;;;1796715;78;20273;-63
2024/05/04 12:01:44;;;;;;;;;;;19.70;47.90;;;;;;1795713;78;20814;-64
2024/05/04 12:04:11;;;;;;;;;;;19.90;48.20;;;;;;1816245;78;20208;-64
2024/05/04 12:06:38;;;;;;;;;;;19.90;46.20;;;;;;1807485;78;20257;-64
2024/05/04 12:09:05;;;;;;;;;;;20.00;46.30;;;;;;1787872;78;20181;-64
2024/05/04 12:11:31;;;;;;;;;;;20.10;44.00;;;;;;1797823;78;20215;-61
2024/05/04 12:13:58;;;;;;;;;;;20.00;42.90;;;;;;1797752;78;20204;-64
2024/05/04 12:16:25;;;;;;;;;;;19.80;42.10;;;;;;1775133;80;20195;-61
2024/05/04 12:18:52;;;;;;;;;;;19.70;43.10;;;;;;1815226;78;20212;-63
2024/05/04 12:21:19;;;;;;;;;;;19.50;42.10;;;;;;1797472;78;20220;-63
2024/05/04 12:23:46;;;;;;;;;;;19.50;44.20;;;;;;1794786;78;20173;-64
2024/05/04 12:26:12;;;;;;;;;;;19.40;42.80;;;;;;1805855;78;20236;-64
2024/05/04 12:28:39;;;;;;;;;;;19.30;43.20;;;;;;1799867;78;21233;-64
2024/05/04 12:31:06;;;;;;;;;;;19.30;43.70;;;;;;1807906;78;20426;-63
2024/05/04 12:33:33;;;;;;;;;;;19.40;44.10;;;;;;1770752;80;20343;-63
2024/05/04 12:36:05;;;;;;;;;;;19.50;44.70;;;;;;1735705;81;20613;-64
2024/05/04 12:38:32;;;;;;;;;;;19.80;43.20;;;;;;1747148;81;20176;-64
2024/05/04 12:40:58;;;;;;;;;;;20.10;42.80;;;;;;1741506;81;20466;-65
2024/05/04 12:43:25;;;;;;;;;;;20.20;42.60;;;;;;1776580;80;20129;-62
2024/05/04 12:45:52;;;;;;;;;;;20.40;42.80;;;;;;1738478;81;20475;-65
2024/05/04 12:48:19;;;;;;;;;;;20.40;42.00;;;;;;1809412;78;21669;-64
2024/05/04 12:50:46;;;;;;;5.30;1.60;;;20.40;41.70;;;;;;1804388;78;20134;-64
2024/05/04 12:53:14;;;;;;;3.90;1.20;;;20.30;42.70;;;;;;1761801;78;74690;-61
2024/05/04 12:55:41;;;;;;;2.83;1.23;;;20.50;39.50;;;;;;1783941;78;30766;-60
2024/05/04 12:58:09;;;;;;;3.90;1.43;;;20.50;39.10;;;;;;1782260;79;25966;-62
2024/05/04 13:00:37;;;;;;;3.20;1.40;;;20.40;37.90;;;;;;1776977;77;26347;-62
2024/05/04 13:03:04;;;;;;;5.57;1.37;;;20.30;39.10;;;;;;1814469;77;26043;-62
2024/05/04 13:05:32;;;;;;;3.70;1.43;;;20.10;39.50;;;;;;1807775;76;26501;-64
2024/05/04 13:07:59;;;;;;;3.67;1.43;;;19.90;39.60;;;;;;1830054;77;26037;-61
2024/05/04 13:10:27;;;;;;;3.50;1.20;;;19.90;39.80;;;;;;1827128;77;26023;-61
2024/05/04 13:12:54;;;;;;;3.80;1.30;;;20.00;40.10;;;;;;1836961;77;25957;-61
2024/05/04 13:15:22;;;;;;;3.70;1.53;;;20.00;40.00;;;;;;1830638;77;26539;-63
2024/05/04 13:17:50;;;;;;;2.93;1.70;;;19.90;40.40;;;;;;1831784;77;26513;-64
2024/05/04 13:20:17;;;;;;;3.40;1.33;;;19.80;40.10;;;;;;1835303;77;26424;-64
2024/05/04 13:22:45;;;;;;;4.03;1.30;;;19.80;40.70;;;;;;1821853;77;25988;-64
2024/05/04 13:25:12;;;;;;;3.80;1.77;;;19.90;41.00;;;;;;1822956;77;25938;-62
2024/05/04 13:27:40;;;;;;;4.13;1.53;;;20.00;41.40;;;;;;1812795;77;26066;-64
2024/05/04 13:30:09;;;;;;;3.20;1.20;;;20.10;39.80;;;;;;1824278;77;26456;-64
2024/05/04 13:32:36;;;;;;;3.50;1.37;;;20.20;40.30;;;;;;1833826;77;25883;-63
2024/05/04 13:35:04;;;;;;;3.50;1.10;;;20.20;40.70;;;;;;1836389;77;26093;-64
2024/05/04 13:37:32;;;;;;;3.70;1.27;;;20.20;39.90;;;;;;1823940;77;26030;-64
2024/05/04 13:40:00;;;;;;;3.07;1.50;;;20.30;40.40;;;;;;1829710;77;25980;-65
2024/05/04 13:42:27;;;;;;;4.27;1.53;;;20.40;40.20;;;;;;1824785;77;27626;-61
2024/05/04 13:44:55;;;;;;;3.80;1.50;;;20.30;39.90;;;;;;1828842;77;25972;-61
2024/05/04 13:47:22;;;;;;;3.70;1.97;;;20.30;40.50;;;;;;1830189;77;26023;-63
2024/05/04 13:49:50;;;;;;;4.87;1.50;;;20.20;40.70;;;;;;1825443;77;27293;-63
2024/05/04 13:52:17;;;;;;;5.47;1.50;;;20.20;40.00;;;;;;1828407;77;25930;-62
2024/05/04 13:54:45;;;;;;;4.43;1.27;;;20.20;41.10;;;;;;1830705;77;26152;-61
2024/05/04 13:57:12;;;;;;;3.47;1.50;;;20.40;41.10;;;;;;1831142;77;25982;-63
2024/05/04 13:59:40;;;;;;;3.17;1.60;;;20.30;39.40;;;;;;1828080;77;26058;-63
2024/05/04 14:02:08;;;;;;;4.10;1.67;;;20.00;38.90;;;;;;1833041;77;26143;-63
2024/05/04 14:04:35;;;;;;;2.83;1.23;;;19.70;39.50;;;;;;1833206;77;25997;-63
2024/05/04 14:07:03;;;;;;;4.60;1.30;;;19.40;39.70;;;;;;1825120;77;26601;-64
2024/05/04 14:09:30;;;;;;;3.80;1.90;;;19.20;41.30;;;;;;1822993;77;27020;-63
2024/05/04 14:11:58;;;;;;;3.90;1.93;;;18.80;43.20;;;;;;1830950;77;25984;-63
2024/05/04 14:14:25;;;;;;;4.87;1.80;;;18.30;45.30;;;;;;1829248;77;26081;-62